createdAt,value
2022-09-23T00:01:23.635Z,98880.28
2022-09-23T00:04:25.908Z,98882.97
2022-09-23T00:07:27.705Z,98874.53
2022-09-23T00:10:32.895Z,98875.56
2022-09-23T00:13:36.366Z,98870.00
2022-09-23T00:16:38.333Z,98868.78
2022-09-23T00:19:40.439Z,98865.91
2022-09-23T00:22:42.278Z,98869.44
2022-09-23T00:25:44.165Z,98861.38
2022-09-23T00:28:46.697Z,98862.41
2022-09-23T00:31:48.451Z,98856.66
2022-09-23T00:34:51.554Z,98863.69
2022-09-23T00:37:53.345Z,98860.16
2022-09-23T00:40:55.231Z,98853.13
2022-09-23T00:43:59.612Z,98853.13
2022-09-23T00:47:01.580Z,98856.84
2022-09-23T00:50:14.091Z,98854.97
2022-09-23T00:53:21.181Z,98856.84
2022-09-23T00:56:24.411Z,98858.88
2022-09-23T00:59:29.064Z,98853.50
2022-09-23T01:02:31.682Z,98855.34
2022-09-23T01:05:34.410Z,98847.31
2022-09-23T01:08:36.437Z,98848.13
2022-09-23T01:11:40.983Z,98846.28
2022-09-23T01:15:06.679Z,98837.19
2022-09-23T01:18:32.771Z,98839.44
2022-09-23T01:21:48.409Z,98841.66
2022-09-23T01:25:16.414Z,98838.06
2022-09-23T01:28:54.556Z,98849.19
2022-09-23T01:32:15.165Z,98850.38
2022-09-23T01:35:25.913Z,98839.81
2022-09-23T01:38:46.594Z,98833.78
2022-09-23T01:41:57.444Z,98827.13
2022-09-23T01:45:10.997Z,98834.16
2022-09-23T01:48:18.877Z,98831.75
2022-09-23T01:51:23.873Z,98825.66
2022-09-23T01:54:34.301Z,98814.44
2022-09-23T01:57:53.420Z,98819.25
2022-09-23T02:01:01.184Z,98821.94
2022-09-23T02:04:31.014Z,98817.88
2022-09-23T02:07:42.515Z,98820.28
2022-09-23T02:10:49.185Z,98808.72
2022-09-23T02:14:07.012Z,98806.22
2022-09-23T02:17:13.831Z,98797.97
2022-09-23T02:20:22.162Z,98799.81
2022-09-23T02:23:26.675Z,98807.03
2022-09-23T02:26:38.646Z,98816.75
2022-09-23T02:29:49.418Z,98827.69
2022-09-23T02:33:24.608Z,98828.72
2022-09-23T02:36:46.020Z,98830.38
2022-09-23T02:40:09.097Z,98837.41
2022-09-23T02:43:19.898Z,98848.78
2022-09-23T02:46:23.242Z,98848.41
2022-09-23T02:49:28.245Z,98832.50
2022-09-23T02:52:30.090Z,98837.69
2022-09-23T02:55:32.428Z,98836.19
2022-09-23T02:58:34.633Z,98824.06
2022-09-23T03:02:01.215Z,98820.94
2022-09-23T03:05:30.290Z,98837.22
2022-09-23T03:08:51.186Z,98832.59
2022-09-23T03:12:15.849Z,98836.28
2022-09-23T03:15:23.342Z,98838.69
2022-09-23T03:18:46.642Z,98829.44
2022-09-23T03:21:56.824Z,98827.31
2022-09-23T03:25:07.168Z,98830.84
2022-09-23T03:28:09.987Z,98831.66
2022-09-23T03:31:13.255Z,98835.56
2022-09-23T03:34:22.842Z,98829.53
2022-09-23T03:37:36.021Z,98825.00
2022-09-23T03:40:44.085Z,98823.16
2022-09-23T03:43:46.432Z,98819.63
2022-09-23T03:46:51.158Z,98796.69
2022-09-23T03:49:54.058Z,98801.59
2022-09-23T03:52:55.810Z,98818.63
2022-09-23T03:55:57.535Z,98830.19
2022-09-23T03:58:59.402Z,98828.31
2022-09-23T04:02:02.644Z,98830.00
2022-09-23T04:05:05.274Z,98820.47
2022-09-23T04:08:07.117Z,98825.00
2022-09-23T04:11:08.959Z,98807.69
2022-09-23T04:14:12.240Z,98809.44
2022-09-23T04:17:14.260Z,98827.69
2022-09-23T04:20:17.339Z,98835.34
2022-09-23T04:23:19.188Z,98817.88
2022-09-23T04:26:21.002Z,98825.66
2022-09-23T04:29:24.213Z,98829.25
2022-09-23T04:32:26.138Z,98831.56
2022-09-23T04:35:27.967Z,98827.03
2022-09-23T04:38:29.733Z,98833.97
2022-09-23T04:41:31.809Z,98827.88
2022-09-23T04:44:34.889Z,98830.47
2022-09-23T04:47:37.398Z,98827.03
2022-09-23T04:50:39.433Z,98832.88
2022-09-23T04:53:43.432Z,98819.06
2022-09-23T04:56:45.230Z,98824.91
2022-09-23T04:59:47.335Z,98820.81
2022-09-23T05:02:50.586Z,98815.28
2022-09-23T05:05:53.009Z,98825.81
2022-09-23T05:08:56.244Z,98807.03
2022-09-23T05:11:58.358Z,98815.72
2022-09-23T05:15:00.671Z,98812.66
2022-09-23T05:18:02.620Z,98834.16
2022-09-23T05:21:04.688Z,98833.50
2022-09-23T05:24:07.475Z,98834.16
2022-09-23T05:27:09.394Z,98831.66
2022-09-23T05:30:11.793Z,98833.13
2022-09-23T05:33:14.213Z,98823.88
2022-09-23T05:36:19.974Z,98819.53
2022-09-23T05:39:21.851Z,98818.63
2022-09-23T05:42:24.173Z,98810.19
2022-09-23T05:45:27.390Z,98819.72
2022-09-23T05:48:34.141Z,98831.56
2022-09-23T05:51:35.989Z,98830.34
2022-09-23T05:54:39.716Z,98828.13
2022-09-23T05:57:41.455Z,98823.38
2022-09-23T06:00:44.207Z,98827.75
2022-09-23T06:03:49.875Z,98817.19
2022-09-23T06:06:51.645Z,98813.47
2022-09-23T06:09:54.285Z,98816.16
2022-09-23T06:12:56.162Z,98820.31
2022-09-23T06:15:58.319Z,98818.47
2022-09-23T06:19:06.217Z,98819.31
2022-09-23T06:22:10.888Z,98813.56
2022-09-23T06:25:13.040Z,98823.28
2022-09-23T06:28:15.712Z,98827.44
2022-09-23T06:31:17.917Z,98828.91
2022-09-23T06:34:21.132Z,98831.22
2022-09-23T06:37:24.283Z,98834.28
2022-09-23T06:40:26.718Z,98827.88
2022-09-23T06:43:29.213Z,98825.41
2022-09-23T06:46:31.871Z,98822.31
2022-09-23T06:49:33.971Z,98830.13
2022-09-23T06:52:35.768Z,98838.44
2022-09-23T06:55:37.712Z,98835.13
2022-09-23T06:58:40.507Z,98840.50
2022-09-23T07:01:42.532Z,98840.03
2022-09-23T07:04:44.862Z,98823.72
2022-09-23T07:07:46.584Z,98825.41
2022-09-23T07:10:53.841Z,98832.25
2022-09-23T07:13:57.247Z,98833.78
2022-09-23T07:16:59.985Z,98828.59
2022-09-23T07:20:02.193Z,98823.50
2022-09-23T07:23:04.839Z,98821.25
2022-09-23T07:26:08.770Z,98820.88
2022-09-23T07:29:13.179Z,98828.75
2022-09-23T07:32:15.997Z,98835.22
2022-09-23T07:35:19.433Z,98837.72
2022-09-23T07:38:22.414Z,98836.03
2022-09-23T07:41:26.041Z,98840.63
2022-09-23T07:44:29.237Z,98843.13
2022-09-23T07:47:31.600Z,98833.75
2022-09-23T07:50:33.844Z,98828.03
2022-09-23T07:53:37.076Z,98824.00
2022-09-23T07:56:41.843Z,98820.56
2022-09-23T07:59:44.193Z,98803.78
2022-09-23T08:02:49.588Z,98804.66
2022-09-23T08:05:54.644Z,98796.22
2022-09-23T08:09:00.812Z,98794.34
2022-09-23T08:12:03.598Z,98796.69
2022-09-23T08:15:06.136Z,98799.44
2022-09-23T08:18:09.962Z,98813.38
2022-09-23T08:21:12.693Z,98812.81
2022-09-23T08:24:17.790Z,98813.44
2022-09-23T08:27:19.937Z,98805.81
2022-09-23T08:30:22.070Z,98798.63
2022-09-23T08:33:24.529Z,98799.50
2022-09-23T08:36:27.529Z,98789.41
2022-09-23T08:39:29.332Z,98794.44
2022-09-23T08:42:35.880Z,98803.56
2022-09-23T08:45:40.539Z,98808.53
2022-09-23T08:48:47.623Z,98810.00
2022-09-23T08:51:51.330Z,98812.72
2022-09-23T08:54:55.669Z,98814.38
2022-09-23T08:58:25.899Z,98815.63
2022-09-23T09:01:48.235Z,98816.69
2022-09-23T09:05:06.094Z,98806.53
2022-09-23T09:08:11.840Z,98810.69
2022-09-23T09:11:16.805Z,98818.19
2022-09-23T09:14:28.854Z,98811.59
2022-09-23T09:17:44.382Z,98814.50
2022-09-23T09:21:11.633Z,98822.81
2022-09-23T09:24:33.842Z,98828.25
2022-09-23T09:27:40.731Z,98826.00
2022-09-23T09:30:48.315Z,98817.91
2022-09-23T09:34:06.303Z,98816.09
2022-09-23T09:37:18.221Z,98807.63
2022-09-23T09:40:21.288Z,98805.75
2022-09-23T09:43:25.530Z,98805.59
2022-09-23T09:46:47.321Z,98807.69
2022-09-23T09:50:14.202Z,98804.16
2022-09-23T09:53:27.806Z,98811.84
2022-09-23T09:56:34.994Z,98806.03
2022-09-23T09:59:42.075Z,98814.34
2022-09-23T10:02:47.815Z,98813.50
2022-09-23T10:05:53.849Z,98811.84
2022-09-23T10:09:10.629Z,98807.91
2022-09-23T10:12:18.525Z,98810.59
2022-09-23T10:15:44.462Z,98804.81
2022-09-23T10:18:46.876Z,98805.63
2022-09-23T10:21:57.010Z,98804.38
2022-09-23T10:25:03.760Z,98808.13
2022-09-23T10:28:41.726Z,98800.66
2022-09-23T10:31:45.457Z,98808.13
2022-09-23T10:34:52.397Z,98802.72
2022-09-23T10:38:00.392Z,98806.06
2022-09-23T10:41:21.223Z,98813.53
2022-09-23T10:45:12.286Z,98796.72
2022-09-23T10:48:36.329Z,98791.72
2022-09-23T10:52:04.722Z,98784.25
2022-09-23T10:55:42.901Z,98797.34
2022-09-23T10:59:22.357Z,98791.94
2022-09-23T11:02:50.510Z,98782.59
2022-09-23T11:05:55.238Z,98780.31
2022-09-23T11:09:23.266Z,98791.72
2022-09-23T11:12:32.007Z,98789.44
2022-09-23T11:15:52.530Z,98797.53
2022-09-23T11:19:16.005Z,98789.84
2022-09-23T11:22:36.236Z,98791.94
2022-09-23T11:26:23.740Z,98789.03
2022-09-23T11:29:36.503Z,98779.06
2022-09-23T11:33:04.790Z,98791.09
2022-09-23T11:36:10.675Z,98784.44
2022-09-23T11:39:23.989Z,98791.91
2022-09-23T11:42:31.582Z,98792.75
2022-09-23T11:45:41.982Z,98793.38
2022-09-23T11:48:57.862Z,98787.16
2022-09-23T11:52:08.860Z,98792.75
2022-09-23T11:55:31.932Z,98794.22
2022-09-23T11:58:50.014Z,98785.50
2022-09-23T12:02:15.781Z,98787.56
2022-09-23T12:05:26.882Z,98795.88
2022-09-23T12:08:34.475Z,98780.09
2022-09-23T12:11:50.579Z,98777.38
2022-09-23T12:15:14.318Z,98780.25
2022-09-23T12:19:08.536Z,98766.13
2022-09-23T12:22:30.889Z,98759.88
2022-09-23T12:25:47.264Z,98758.59
2022-09-23T12:28:59.228Z,98758.16
2022-09-23T12:32:09.882Z,98757.91
2022-09-23T12:35:24.101Z,98754.97
2022-09-23T12:38:35.197Z,98761.41
2022-09-23T12:41:41.430Z,98773.50
2022-09-23T12:44:55.130Z,98768.53
2022-09-23T12:48:19.668Z,98773.75
2022-09-23T12:51:44.729Z,98771.66
2022-09-23T12:54:50.132Z,98765.66
2022-09-23T12:57:52.046Z,98765.66
2022-09-23T13:01:10.383Z,98766.69
2022-09-23T13:04:55.042Z,98761.50
2022-09-23T13:08:17.755Z,98759.63
2022-09-23T13:11:28.041Z,98762.75
2022-09-23T13:14:35.711Z,98762.75
2022-09-23T13:17:40.006Z,98768.59
2022-09-23T13:20:43.168Z,98777.34
2022-09-23T13:24:12.851Z,98776.53
2022-09-23T13:27:26.669Z,98780.47
2022-09-23T13:30:28.893Z,98783.38
2022-09-23T13:33:48.324Z,98787.75
2022-09-23T13:36:50.400Z,98787.34
2022-09-23T13:40:07.901Z,98789.41
2022-09-23T13:43:22.131Z,98784.66
2022-09-23T13:46:28.117Z,98786.09
2022-09-23T13:49:34.123Z,98781.34
2022-09-23T13:52:36.287Z,98783.41
2022-09-23T13:55:39.595Z,98794.00
2022-09-23T13:58:43.484Z,98785.09
2022-09-23T14:01:47.051Z,98794.00
2022-09-23T14:04:49.608Z,98791.72
2022-09-23T14:07:52.836Z,98804.81
2022-09-23T14:10:55.942Z,98794.44
2022-09-23T14:14:00.059Z,98789.44
2022-09-23T14:17:02.601Z,98789.22
2022-09-23T14:20:05.629Z,98791.94
2022-09-23T14:23:12.070Z,98783.63
2022-09-23T14:26:14.844Z,98786.09
2022-09-23T14:29:18.234Z,98786.88
2022-09-23T14:32:27.126Z,98789.59
2022-09-23T14:35:42.896Z,98775.06
2022-09-23T14:38:50.775Z,98769.88
2022-09-23T14:41:52.945Z,98771.72
2022-09-23T14:44:56.432Z,98777.09
2022-09-23T14:48:22.793Z,98767.13
2022-09-23T14:51:47.434Z,98779.56
2022-09-23T14:54:52.117Z,98779.94
2022-09-23T14:58:12.402Z,98788.44
2022-09-23T15:01:29.522Z,98788.88
2022-09-23T15:04:33.356Z,98792.38
2022-09-23T15:07:38.094Z,98791.75
2022-09-23T15:10:42.816Z,98788.63
2022-09-23T15:13:49.707Z,98787.38
2022-09-23T15:16:53.145Z,98793.38
2022-09-23T15:19:59.874Z,98797.69
2022-09-23T15:23:01.887Z,98801.38
2022-09-23T15:26:12.810Z,98802.41
2022-09-23T15:29:17.816Z,98799.69
2022-09-23T15:32:22.525Z,98801.13
2022-09-23T15:35:27.189Z,98800.91
2022-09-23T15:38:32.439Z,98794.03
2022-09-23T15:41:34.552Z,98801.50
2022-09-23T15:44:40.003Z,98790.28
2022-09-23T15:47:44.395Z,98793.56
2022-09-23T15:50:49.702Z,98796.84
2022-09-23T15:53:52.849Z,98801.19
2022-09-23T15:56:56.326Z,98803.44
2022-09-23T16:00:01.694Z,98799.66
2022-09-23T16:03:31.964Z,98799.16
2022-09-23T16:06:36.262Z,98803.66
2022-09-23T16:09:40.226Z,98801.09
2022-09-23T16:12:44.806Z,98808.28
2022-09-23T16:15:47.560Z,98810.75
2022-09-23T16:18:52.291Z,98811.50
2022-09-23T16:21:55.824Z,98816.59
2022-09-23T16:24:58.118Z,98817.53
2022-09-23T16:28:00.343Z,98818.00
2022-09-23T16:31:04.828Z,98816.91
2022-09-23T16:34:09.695Z,98819.34
2022-09-23T16:37:20.615Z,98813.31
2022-09-23T16:40:24.957Z,98818.63
2022-09-23T16:43:32.845Z,98817.53
2022-09-23T16:46:36.702Z,98808.56
2022-09-23T16:49:39.924Z,98813.66
2022-09-23T16:52:42.431Z,98822.28
2022-09-23T16:55:47.330Z,98829.81
2022-09-23T16:58:53.852Z,98829.16
2022-09-23T17:02:15.804Z,98824.16
2022-09-23T17:05:19.877Z,98821.94
2022-09-23T17:08:23.369Z,98823.59
2022-09-23T17:11:25.231Z,98813.06
2022-09-23T17:14:31.199Z,98817.03
2022-09-23T17:17:39.727Z,98817.22
2022-09-23T17:20:43.775Z,98823.22
2022-09-23T17:23:47.246Z,98825.72
2022-09-23T17:26:52.764Z,98824.53
2022-09-23T17:29:56.014Z,98817.09
2022-09-23T17:32:58.047Z,98814.63
2022-09-23T17:36:10.150Z,98820.81
2022-09-23T17:39:12.860Z,98818.13
2022-09-23T17:42:15.918Z,98812.56
2022-09-23T17:45:23.060Z,98810.16
2022-09-23T17:48:28.374Z,98801.91
2022-09-23T17:51:31.388Z,98799.22
2022-09-23T17:54:36.740Z,98794.88
2022-09-23T17:57:39.862Z,98802.00
2022-09-23T18:00:51.323Z,98796.00
2022-09-23T18:04:00.153Z,98789.34
2022-09-23T18:07:13.696Z,98790.38
2022-09-23T18:10:18.513Z,98786.84
2022-09-23T18:13:23.827Z,98786.00
2022-09-23T18:19:54.291Z,98784.44
2022-09-23T18:23:05.304Z,98790.47
2022-09-23T18:26:15.112Z,98778.72
2022-09-23T18:29:23.714Z,98789.78
2022-09-23T18:32:29.526Z,98792.22
2022-09-23T18:35:33.754Z,98791.38
2022-09-23T18:38:40.852Z,98779.53
2022-09-23T18:41:43.771Z,98786.50
2022-09-23T18:44:46.415Z,98771.97
2022-09-23T18:48:11.360Z,98776.50
2022-09-23T18:51:25.881Z,98780.13
2022-09-23T18:54:29.501Z,98772.34
2022-09-23T18:57:32.522Z,98771.63
2022-09-23T19:00:36.134Z,98767.19
2022-09-23T19:03:38.616Z,98773.28
2022-09-23T19:06:42.708Z,98770.03
2022-09-23T19:09:46.710Z,98766.78
2022-09-23T19:12:49.334Z,98767.72
2022-09-23T19:15:51.517Z,98769.81
2022-09-23T19:18:55.215Z,98762.03
2022-09-23T19:22:01.484Z,98780.69
2022-09-23T19:25:07.159Z,98775.41
2022-09-23T19:28:11.888Z,98773.34
2022-09-23T19:31:17.461Z,98781.94
2022-09-23T19:34:25.736Z,98766.75
2022-09-23T19:37:29.098Z,98774.69
2022-09-23T19:40:32.378Z,98771.84
2022-09-23T19:43:37.631Z,98769.69
2022-09-23T19:46:44.607Z,98771.25
2022-09-23T19:49:48.735Z,98769.81
2022-09-23T19:52:53.897Z,98771.56
2022-09-23T19:55:56.462Z,98770.25
2022-09-23T19:58:59.572Z,98768.28
2022-09-23T20:02:01.599Z,98768.63
2022-09-23T20:05:03.741Z,98778.84
2022-09-23T20:08:05.731Z,98782.72
2022-09-23T20:11:28.091Z,98779.91
2022-09-23T20:14:31.318Z,98782.09
2022-09-23T20:17:33.067Z,98780.47
2022-09-23T20:20:34.909Z,98781.63
2022-09-23T20:23:36.927Z,98783.47
2022-09-23T20:26:57.214Z,98780.81
2022-09-23T20:30:00.471Z,98774.97
2022-09-23T20:33:02.282Z,98776.47
2022-09-23T20:36:05.559Z,98788.81
2022-09-23T20:39:07.643Z,98777.97
2022-09-23T20:42:09.405Z,98775.78
2022-09-23T20:45:11.319Z,98770.25
2022-09-23T20:48:13.163Z,98775.41
2022-09-23T20:51:15.445Z,98769.38
2022-09-23T20:54:20.416Z,98766.53
2022-09-23T20:57:22.289Z,98759.63
2022-09-23T21:00:24.117Z,98764.66
2022-09-23T21:03:29.302Z,98756.25
2022-09-23T21:06:31.226Z,98756.75
2022-09-23T21:09:33.010Z,98759.91
2022-09-23T21:12:35.253Z,98755.88
2022-09-23T21:15:37.134Z,98741.66
2022-09-23T21:18:39.123Z,98752.66
2022-09-23T21:21:40.916Z,98750.81
2022-09-23T21:25:25.867Z,98753.16
2022-09-23T21:28:04.595Z,98750.47
2022-09-23T21:31:08.816Z,98755.63
2022-09-23T21:34:11.453Z,98751.97
2022-09-23T21:37:13.343Z,98745.41
2022-09-23T21:40:33.916Z,98750.41
2022-09-23T21:43:38.559Z,98736.19
2022-09-23T21:46:40.325Z,98736.66
2022-09-23T21:49:44.835Z,98731.13
2022-09-23T21:52:51.799Z,98720.44
2022-09-23T21:55:54.127Z,98730.97
2022-09-23T21:58:58.344Z,98728.94
2022-09-23T22:02:00.176Z,98725.59
2022-09-23T22:05:01.963Z,98725.97
2022-09-23T22:08:03.852Z,98723.28
2022-09-23T22:11:33.558Z,98732.16
2022-09-23T22:14:36.183Z,98727.63
2022-09-23T22:17:40.231Z,98734.34
2022-09-23T22:20:43.626Z,98724.28
2022-09-23T22:23:46.451Z,98718.75
2022-09-23T22:26:48.314Z,98720.44
2022-09-23T22:30:08.707Z,98721.75
2022-09-23T22:33:10.462Z,98714.38
2022-09-23T22:36:12.894Z,98711.50
2022-09-23T22:39:14.849Z,98711.31
2022-09-23T22:42:16.658Z,98707.81
2022-09-23T22:45:18.462Z,98708.81
2022-09-23T22:48:21.075Z,98695.44
2022-09-23T22:51:22.887Z,98697.47
2022-09-23T22:54:29.112Z,98698.47
2022-09-23T22:57:34.684Z,98701.63
2022-09-23T23:00:38.668Z,98698.78
2022-09-23T23:03:41.774Z,98698.41
2022-09-23T23:06:43.670Z,98700.91
2022-09-23T23:09:45.429Z,98694.38
2022-09-23T23:12:47.441Z,98699.53
2022-09-23T23:15:49.421Z,98688.66
2022-09-23T23:18:51.185Z,98693.16
2022-09-23T23:21:53.051Z,98686.97
2022-09-23T23:24:55.080Z,98679.47
2022-09-23T23:27:57.929Z,98677.34
2022-09-23T23:31:03.650Z,98673.38
2022-09-23T23:34:07.180Z,98669.84
2022-09-23T23:37:09.560Z,98676.41
2022-09-23T23:40:11.428Z,98670.56
2022-09-23T23:43:13.462Z,98672.59
2022-09-23T23:46:15.792Z,98662.44
2022-09-23T23:49:17.599Z,98667.47
2022-09-23T23:52:19.322Z,98663.50
2022-09-23T23:55:21.127Z,98662.38
2022-09-23T23:58:22.944Z,98659.88
